createdAt,value
2022-10-17T00:00:33.660Z,2.30
2022-10-17T00:03:00.392Z,2.00
2022-10-17T00:05:26.956Z,2.00
2022-10-17T00:07:53.351Z,2.25
2022-10-17T00:10:19.868Z,2.30
2022-10-17T00:12:46.699Z,2.30
2022-10-17T00:15:18.327Z,2.42
2022-10-17T00:17:45.013Z,2.30
2022-10-17T00:20:12.293Z,2.40
2022-10-17T00:22:38.690Z,1.88
2022-10-17T00:25:05.497Z,1.90
2022-10-17T00:27:35.447Z,1.85
2022-10-17T00:30:01.986Z,1.98
2022-10-17T00:32:28.560Z,2.15
2022-10-17T00:34:55.231Z,2.28
2022-10-17T00:37:21.649Z,1.88
2022-10-17T00:39:48.029Z,3.10
2022-10-17T00:42:14.445Z,2.05
2022-10-17T00:44:40.738Z,1.63
2022-10-17T00:47:14.507Z,3.20
2022-10-17T00:49:41.103Z,2.45
2022-10-17T00:52:17.672Z,2.05
2022-10-17T00:54:49.275Z,2.55
2022-10-17T00:57:17.004Z,2.53
2022-10-17T00:59:47.902Z,2.60
2022-10-17T01:02:17.554Z,2.60
2022-10-17T01:04:46.835Z,3.65
2022-10-17T01:07:13.316Z,3.10
2022-10-17T01:09:41.353Z,3.55
2022-10-17T01:12:12.202Z,3.72
2022-10-17T01:14:50.511Z,3.63
2022-10-17T01:17:41.913Z,3.63
2022-10-17T01:20:33.336Z,3.30
2022-10-17T01:23:14.974Z,3.30
2022-10-17T01:26:13.580Z,3.28
2022-10-17T01:28:55.859Z,3.55
2022-10-17T01:31:29.775Z,3.35
2022-10-17T01:34:01.913Z,4.03
2022-10-17T01:36:38.469Z,2.80
2022-10-17T01:39:30.068Z,3.15
2022-10-17T01:42:06.179Z,3.00
2022-10-17T01:44:38.553Z,3.88
2022-10-17T01:47:13.424Z,4.00
2022-10-17T01:49:42.992Z,2.88
2022-10-17T01:52:18.243Z,3.20
2022-10-17T01:54:49.558Z,2.65
2022-10-17T01:57:29.593Z,4.15
2022-10-17T01:59:57.271Z,4.07
2022-10-17T02:02:25.803Z,3.92
2022-10-17T02:04:55.436Z,3.80
2022-10-17T02:07:21.851Z,4.18
2022-10-17T02:09:48.488Z,4.00
2022-10-17T02:12:40.624Z,4.28
2022-10-17T02:15:24.156Z,3.83
2022-10-17T02:17:57.217Z,3.40
2022-10-17T02:20:35.632Z,4.35
2022-10-17T02:23:11.384Z,4.60
2022-10-17T02:26:03.909Z,4.93
2022-10-17T02:28:39.629Z,4.03
2022-10-17T02:31:17.534Z,3.90
2022-10-17T02:33:52.890Z,3.13
2022-10-17T02:36:22.640Z,3.17
2022-10-17T02:38:50.601Z,3.50
2022-10-17T02:41:19.162Z,3.78
2022-10-17T02:43:48.248Z,3.70
2022-10-17T02:46:20.887Z,3.55
2022-10-17T02:48:51.582Z,4.82
2022-10-17T02:51:26.982Z,4.93
2022-10-17T02:54:18.381Z,4.78
2022-10-17T02:57:00.185Z,5.00
2022-10-17T02:59:30.559Z,5.40
2022-10-17T03:01:56.983Z,4.38
2022-10-17T03:04:23.363Z,4.85
2022-10-17T03:06:49.824Z,5.80
2022-10-17T03:09:16.285Z,3.75
2022-10-17T03:11:42.678Z,4.70
2022-10-17T03:14:09.053Z,4.88
2022-10-17T03:16:35.429Z,3.88
2022-10-17T03:19:01.838Z,3.45
2022-10-17T03:21:28.259Z,3.80
2022-10-17T03:23:54.651Z,3.85
2022-10-17T03:26:21.090Z,4.55
2022-10-17T03:28:50.712Z,5.13
2022-10-17T03:31:20.223Z,5.38
2022-10-17T03:33:46.893Z,5.13
2022-10-17T03:36:16.238Z,4.53
2022-10-17T03:38:44.067Z,4.47
2022-10-17T03:41:10.603Z,3.50
2022-10-17T03:43:37.084Z,5.78
2022-10-17T03:46:03.644Z,5.55
2022-10-17T03:48:31.290Z,5.95
2022-10-17T03:51:02.966Z,5.55
2022-10-17T03:53:29.531Z,5.60
2022-10-17T03:55:57.278Z,3.72
2022-10-17T03:58:23.732Z,6.22
2022-10-17T04:00:50.111Z,4.95
2022-10-17T04:03:17.446Z,5.13
2022-10-17T04:05:43.960Z,5.28
2022-10-17T04:08:10.333Z,5.80
2022-10-17T04:10:36.724Z,4.53
2022-10-17T04:13:03.110Z,6.00
2022-10-17T04:15:29.634Z,4.10
2022-10-17T04:17:56.094Z,5.32
2022-10-17T04:20:22.579Z,4.90
2022-10-17T04:22:48.932Z,5.07
2022-10-17T04:25:15.447Z,4.18
2022-10-17T04:27:41.848Z,3.08
2022-10-17T04:30:08.539Z,5.38
2022-10-17T04:32:39.001Z,4.80
2022-10-17T04:35:05.947Z,4.18
2022-10-17T04:37:32.420Z,5.07
2022-10-17T04:39:58.823Z,5.70
2022-10-17T04:42:25.239Z,4.47
2022-10-17T04:44:51.643Z,5.70
2022-10-17T04:47:18.018Z,5.05
2022-10-17T04:49:44.700Z,4.75
2022-10-17T04:52:11.166Z,4.32
2022-10-17T04:54:37.514Z,4.13
2022-10-17T04:57:03.994Z,5.05
2022-10-17T04:59:31.204Z,4.03
2022-10-17T05:01:57.544Z,5.30
2022-10-17T05:04:25.205Z,5.60
2022-10-17T05:06:51.595Z,4.90
2022-10-17T05:09:18.331Z,5.68
2022-10-17T05:11:44.677Z,5.20
2022-10-17T05:14:11.012Z,5.68
2022-10-17T05:16:37.486Z,5.10
2022-10-17T05:19:04.007Z,5.43
2022-10-17T05:21:30.633Z,4.35
2022-10-17T05:23:57.219Z,4.82
2022-10-17T05:26:24.511Z,5.25
2022-10-17T05:28:52.490Z,4.15
2022-10-17T05:31:19.281Z,4.47
2022-10-17T05:33:45.702Z,4.80
2022-10-17T05:36:12.065Z,4.05
2022-10-17T05:38:38.548Z,3.90
2022-10-17T05:41:05.818Z,5.80
2022-10-17T05:43:33.406Z,4.53
2022-10-17T05:46:03.827Z,3.97
2022-10-17T05:48:30.187Z,4.10
2022-10-17T05:51:01.410Z,5.78
2022-10-17T05:53:31.817Z,4.18
2022-10-17T05:56:00.161Z,3.90
2022-10-17T06:01:13.843Z,4.82
2022-10-17T06:03:40.282Z,4.13
2022-10-17T06:06:09.413Z,4.18
2022-10-17T06:08:35.824Z,3.65
2022-10-17T06:11:06.049Z,3.53
2022-10-17T06:13:35.865Z,3.95
2022-10-17T06:16:02.280Z,3.50
2022-10-17T06:18:29.120Z,3.17
2022-10-17T06:21:02.623Z,3.83
2022-10-17T06:23:29.008Z,4.23
2022-10-17T06:26:02.054Z,4.30
2022-10-17T06:28:28.698Z,4.15
2022-10-17T06:30:55.274Z,3.92
2022-10-17T06:33:23.220Z,3.97
2022-10-17T06:35:54.170Z,3.55
2022-10-17T06:38:20.782Z,4.38
2022-10-17T06:40:47.189Z,3.50
2022-10-17T06:43:14.103Z,4.00
2022-10-17T06:45:40.828Z,3.65
2022-10-17T06:48:07.368Z,3.38
2022-10-17T06:50:33.769Z,3.85
2022-10-17T06:53:00.152Z,3.63
2022-10-17T06:55:26.512Z,2.92
2022-10-17T06:57:55.378Z,3.15
2022-10-17T07:00:23.329Z,3.50
2022-10-17T07:02:49.926Z,2.95
2022-10-17T07:05:16.454Z,3.50
2022-10-17T07:07:44.776Z,3.75
2022-10-17T07:10:12.773Z,3.72
2022-10-17T07:12:39.158Z,3.92
2022-10-17T07:15:05.851Z,3.70
2022-10-17T07:17:32.373Z,3.72
2022-10-17T07:19:58.991Z,2.83
2022-10-17T07:22:25.349Z,3.70
2022-10-17T07:24:51.733Z,3.45
2022-10-17T07:27:18.119Z,4.10
2022-10-17T07:29:44.450Z,3.03
2022-10-17T07:32:10.875Z,3.58
2022-10-17T07:34:37.717Z,3.05
2022-10-17T07:37:04.901Z,3.75
2022-10-17T07:39:31.226Z,3.65
2022-10-17T07:41:58.778Z,3.35
2022-10-17T07:44:25.243Z,2.42
2022-10-17T07:46:51.703Z,3.05
2022-10-17T07:49:18.067Z,3.13
2022-10-17T07:51:44.493Z,3.60
2022-10-17T07:54:10.900Z,2.97
2022-10-17T07:56:37.272Z,2.35
2022-10-17T07:59:05.302Z,3.40
2022-10-17T08:01:34.814Z,3.25
2022-10-17T08:04:01.236Z,4.10
2022-10-17T08:06:27.612Z,4.03
2022-10-17T08:08:53.984Z,4.00
2022-10-17T08:11:21.231Z,4.57
2022-10-17T08:13:47.589Z,4.15
2022-10-17T08:16:13.989Z,3.65
2022-10-17T08:18:42.054Z,3.80
2022-10-17T08:21:08.613Z,3.80
2022-10-17T08:23:36.253Z,4.13
2022-10-17T08:26:05.247Z,4.30
2022-10-17T08:28:34.581Z,4.70
2022-10-17T08:31:10.078Z,3.92
2022-10-17T08:33:36.813Z,4.53
2022-10-17T08:36:05.573Z,3.80
2022-10-17T08:38:35.392Z,4.28
2022-10-17T08:41:06.858Z,4.57
2022-10-17T08:44:04.852Z,4.82
2022-10-17T08:46:34.566Z,4.20
2022-10-17T08:49:02.828Z,4.60
2022-10-17T08:51:33.818Z,4.43
2022-10-17T08:54:14.896Z,4.82
2022-10-17T08:56:59.398Z,4.47
2022-10-17T08:59:28.441Z,4.85
2022-10-17T09:02:22.181Z,4.35
2022-10-17T09:05:09.395Z,4.57
2022-10-17T09:07:41.833Z,4.65
2022-10-17T09:10:29.924Z,4.13
2022-10-17T09:13:23.594Z,4.07
2022-10-17T09:15:52.960Z,3.60
2022-10-17T09:18:27.069Z,4.25
2022-10-17T09:20:58.157Z,3.97
2022-10-17T09:23:27.084Z,3.90
2022-10-17T09:25:55.998Z,2.97
2022-10-17T09:28:42.419Z,4.03
2022-10-17T09:31:18.815Z,2.58
2022-10-17T09:33:55.441Z,2.80
2022-10-17T09:36:27.172Z,2.67
2022-10-17T09:38:56.301Z,2.53
2022-10-17T09:44:13.962Z,3.00
2022-10-17T09:46:40.518Z,2.90
2022-10-17T09:49:16.504Z,2.92
2022-10-17T09:51:44.334Z,3.17
2022-10-17T09:54:23.113Z,2.83
2022-10-17T09:57:07.407Z,3.15
2022-10-17T09:59:36.477Z,3.47
2022-10-17T10:02:17.079Z,3.42
2022-10-17T10:05:04.586Z,2.97
2022-10-17T10:07:39.584Z,3.58
2022-10-17T10:12:38.056Z,3.53
2022-10-17T10:15:37.771Z,3.00
2022-10-17T10:18:28.305Z,4.07
2022-10-17T10:21:13.830Z,3.83
2022-10-17T10:23:43.285Z,3.03
2022-10-17T10:26:25.726Z,4.00
2022-10-17T10:29:05.218Z,3.65
2022-10-17T10:31:38.051Z,3.25
2022-10-17T10:34:20.416Z,3.42
2022-10-17T10:36:53.646Z,2.88
2022-10-17T10:39:43.220Z,3.17
2022-10-17T10:42:21.521Z,3.35
2022-10-17T10:44:49.837Z,2.83
2022-10-17T10:47:26.251Z,2.55
2022-10-17T10:50:08.224Z,3.78
2022-10-17T10:52:43.574Z,2.72
2022-10-17T10:56:05.598Z,2.33
2022-10-17T10:58:36.801Z,2.80
2022-10-17T11:01:15.531Z,2.63
2022-10-17T11:03:53.161Z,2.60
2022-10-17T11:06:26.169Z,3.47
2022-10-17T11:08:59.153Z,2.75
2022-10-17T11:11:32.259Z,3.38
2022-10-17T11:14:07.467Z,2.72
2022-10-17T11:16:46.406Z,2.83
2022-10-17T11:19:23.746Z,2.85
2022-10-17T11:22:07.407Z,3.10
2022-10-17T11:24:56.792Z,2.40
2022-10-17T11:27:24.669Z,3.33
2022-10-17T11:29:51.410Z,2.72
2022-10-17T11:32:27.299Z,2.72
2022-10-17T11:35:03.394Z,2.63
2022-10-17T11:37:46.000Z,2.47
2022-10-17T11:40:23.610Z,2.92
2022-10-17T11:42:57.305Z,2.95
2022-10-17T11:45:27.721Z,2.60
2022-10-17T11:48:00.796Z,2.90
2022-10-17T11:53:29.009Z,2.33
2022-10-17T11:55:58.150Z,2.15
2022-10-17T11:58:30.667Z,2.80
2022-10-17T12:01:05.083Z,2.10
2022-10-17T12:03:42.970Z,2.10
2022-10-17T12:06:18.321Z,2.28
2022-10-17T12:08:53.433Z,2.15
2022-10-17T12:11:28.837Z,2.30
2022-10-17T12:13:56.783Z,2.10
2022-10-17T12:16:23.625Z,2.58
2022-10-17T12:19:12.714Z,2.20
2022-10-17T12:21:59.441Z,2.80
2022-10-17T12:24:40.364Z,2.40
2022-10-17T12:27:43.415Z,3.17
2022-10-17T12:30:13.391Z,3.17
2022-10-17T12:33:07.176Z,2.03
2022-10-17T12:35:36.452Z,1.98
2022-10-17T12:38:16.092Z,2.05
2022-10-17T12:40:47.714Z,2.20
2022-10-17T12:43:18.134Z,2.30
2022-10-17T12:45:51.360Z,1.88
2022-10-17T12:48:36.095Z,2.28
2022-10-17T12:54:15.053Z,1.85
2022-10-17T12:56:45.420Z,2.28
2022-10-17T12:59:25.875Z,1.55
2022-10-17T13:02:01.600Z,1.55
2022-10-17T13:04:29.765Z,2.03
2022-10-17T13:06:58.855Z,1.98
2022-10-17T13:09:32.026Z,2.10
2022-10-17T13:12:02.375Z,1.60
2022-10-17T13:14:29.754Z,1.50
2022-10-17T13:17:05.212Z,1.42
2022-10-17T13:19:44.170Z,1.90
2022-10-17T13:22:22.891Z,1.35
2022-10-17T13:24:51.065Z,1.73
2022-10-17T13:27:32.579Z,1.85
2022-10-17T13:30:01.213Z,2.30
2022-10-17T13:32:37.469Z,1.58
2022-10-17T13:35:12.179Z,2.25
2022-10-17T13:37:43.860Z,1.73
2022-10-17T13:40:44.368Z,1.73
2022-10-17T13:43:20.942Z,2.37
2022-10-17T13:45:54.358Z,2.20
2022-10-17T13:48:24.918Z,2.33
2022-10-17T13:51:01.746Z,2.20
2022-10-17T13:53:39.634Z,1.50
2022-10-17T13:56:29.833Z,1.90
2022-10-17T13:59:00.194Z,2.22
2022-10-17T14:01:28.929Z,1.50
2022-10-17T14:04:07.913Z,1.98
2022-10-17T14:06:45.116Z,1.63
2022-10-17T14:09:26.723Z,1.42
2022-10-17T14:12:12.898Z,1.60
2022-10-17T14:15:05.065Z,1.40
2022-10-17T14:17:29.383Z,2.25
2022-10-17T14:23:04.454Z,1.77
2022-10-17T14:25:39.349Z,1.95
2022-10-17T14:28:15.778Z,1.50
2022-10-17T14:30:56.289Z,1.90
2022-10-17T14:33:32.377Z,1.50
2022-10-17T14:36:00.864Z,1.42
2022-10-17T14:38:29.032Z,1.67
2022-10-17T14:41:09.740Z,1.50
2022-10-17T14:43:42.202Z,1.50
2022-10-17T14:46:14.798Z,2.47
2022-10-17T14:48:42.442Z,1.70
2022-10-17T14:51:17.383Z,1.80
2022-10-17T14:54:22.533Z,2.05
2022-10-17T14:56:52.368Z,1.48
2022-10-17T14:59:51.700Z,1.67
2022-10-17T15:02:11.422Z,1.88
2022-10-17T15:04:37.821Z,1.60
2022-10-17T15:07:04.168Z,1.67
2022-10-17T15:09:31.098Z,1.60
2022-10-17T15:12:02.549Z,1.48
2022-10-17T15:14:29.027Z,2.05
2022-10-17T15:16:55.477Z,1.88
2022-10-17T15:19:21.825Z,1.60
2022-10-17T15:21:48.167Z,2.70
2022-10-17T15:24:15.719Z,1.63
2022-10-17T15:26:42.207Z,1.15
2022-10-17T15:29:14.929Z,1.55
2022-10-17T15:31:41.642Z,1.77
2022-10-17T15:34:07.994Z,1.25
2022-10-17T15:36:40.101Z,1.58
2022-10-17T15:39:06.477Z,1.45
2022-10-17T15:41:33.541Z,2.08
2022-10-17T15:44:00.167Z,1.60
2022-10-17T15:46:30.231Z,1.77
2022-10-17T15:48:57.447Z,1.50
2022-10-17T15:51:24.105Z,1.67
2022-10-17T15:53:50.504Z,1.63
2022-10-17T15:56:21.989Z,1.23
2022-10-17T15:58:49.288Z,1.52
2022-10-17T16:01:24.671Z,1.60
2022-10-17T16:03:51.896Z,1.70
2022-10-17T16:06:19.595Z,1.90
2022-10-17T16:08:47.277Z,2.63
2022-10-17T16:11:30.574Z,1.95
2022-10-17T16:13:58.880Z,1.65
2022-10-17T16:16:25.275Z,1.75
2022-10-17T16:18:51.751Z,1.77
2022-10-17T16:21:20.818Z,1.63
2022-10-17T16:23:47.311Z,2.08
2022-10-17T16:26:16.335Z,1.70
2022-10-17T16:28:46.275Z,1.50
2022-10-17T16:31:20.843Z,1.63
2022-10-17T16:36:14.441Z,1.55
2022-10-17T16:38:40.808Z,2.13
2022-10-17T16:41:23.346Z,1.67
2022-10-17T16:43:51.113Z,1.73
2022-10-17T16:46:18.324Z,1.95
2022-10-17T16:48:45.597Z,1.77
2022-10-17T16:51:13.738Z,1.98
2022-10-17T16:53:43.702Z,2.22
2022-10-17T16:56:12.990Z,2.05
2022-10-17T16:58:40.654Z,2.95
2022-10-17T17:01:11.021Z,2.42
2022-10-17T17:03:38.372Z,2.80
2022-10-17T17:06:06.620Z,1.95
2022-10-17T17:08:34.350Z,2.35
2022-10-17T17:11:00.763Z,2.13
2022-10-17T17:13:28.205Z,1.55
2022-10-17T17:16:22.305Z,1.67
2022-10-17T17:18:51.317Z,2.28
2022-10-17T17:21:17.856Z,1.95
2022-10-17T17:23:44.261Z,1.73
2022-10-17T17:26:20.420Z,1.70
2022-10-17T17:28:47.840Z,2.75
2022-10-17T17:31:28.848Z,1.92
2022-10-17T17:36:29.954Z,3.22
2022-10-17T17:38:59.479Z,1.80
2022-10-17T17:41:26.395Z,1.88
2022-10-17T17:43:53.706Z,2.08
2022-10-17T17:46:21.256Z,2.28
2022-10-17T17:48:48.865Z,2.63
2022-10-17T17:51:18.628Z,2.55
2022-10-17T17:53:45.143Z,3.92
2022-10-17T17:56:22.273Z,3.15
2022-10-17T17:59:01.533Z,2.97
2022-10-17T18:01:30.394Z,3.47
2022-10-17T18:04:01.652Z,2.13
2022-10-17T18:06:28.587Z,2.63
2022-10-17T18:08:57.909Z,3.28
2022-10-17T18:11:25.845Z,2.90
2022-10-17T18:14:00.827Z,2.50
2022-10-17T18:16:28.493Z,3.05
2022-10-17T18:18:55.038Z,2.50
2022-10-17T18:21:21.748Z,2.08
2022-10-17T18:23:48.983Z,2.30
2022-10-17T18:26:15.949Z,2.13
2022-10-17T18:28:43.633Z,3.17
2022-10-17T18:31:19.380Z,2.67
2022-10-17T18:33:46.150Z,2.72
2022-10-17T18:36:15.024Z,2.38
2022-10-17T18:38:42.003Z,3.00
2022-10-17T18:41:17.411Z,2.22
2022-10-17T18:43:45.168Z,2.60
2022-10-17T18:46:35.931Z,2.40
2022-10-17T18:49:03.432Z,1.70
2022-10-17T18:51:29.765Z,2.08
2022-10-17T18:53:58.610Z,2.03
2022-10-17T18:56:25.843Z,1.88
2022-10-17T18:58:52.492Z,2.40
2022-10-17T19:01:21.634Z,1.83
2022-10-17T19:03:50.190Z,3.38
2022-10-17T19:06:19.293Z,2.55
2022-10-17T19:08:46.238Z,1.80
2022-10-17T19:11:16.554Z,2.15
2022-10-17T19:16:30.168Z,1.95
2022-10-17T19:19:08.293Z,1.63
2022-10-17T19:21:34.934Z,1.92
2022-10-17T19:24:04.245Z,1.77
2022-10-17T19:26:33.164Z,2.03
2022-10-17T19:29:00.529Z,1.60
2022-10-17T19:31:29.683Z,1.55
2022-10-17T19:33:56.425Z,1.92
2022-10-17T19:36:27.596Z,1.55
2022-10-17T19:38:58.021Z,2.00
2022-10-17T19:41:24.378Z,1.60
2022-10-17T19:43:50.766Z,1.73
2022-10-17T19:46:20.502Z,1.58
2022-10-17T19:48:48.603Z,1.77
2022-10-17T19:51:17.101Z,1.15
2022-10-17T19:53:44.316Z,1.60
2022-10-17T19:56:11.596Z,2.10
2022-10-17T19:58:44.824Z,1.40
2022-10-17T20:01:13.938Z,1.40
2022-10-17T20:03:40.444Z,1.38
2022-10-17T20:06:06.974Z,2.33
2022-10-17T20:08:33.607Z,1.42
2022-10-17T20:11:05.330Z,1.42
2022-10-17T20:13:32.331Z,2.15
2022-10-17T20:15:59.342Z,1.50
2022-10-17T20:18:27.284Z,1.85
2022-10-17T20:20:54.204Z,1.40
2022-10-17T20:23:21.490Z,1.27
2022-10-17T20:25:56.778Z,0.98
2022-10-17T20:30:59.066Z,1.60
2022-10-17T20:33:31.725Z,2.22
2022-10-17T20:35:58.392Z,1.70
2022-10-17T20:38:24.766Z,1.60
2022-10-17T20:40:51.188Z,1.92
2022-10-17T20:43:17.595Z,1.08
2022-10-17T20:45:51.238Z,1.35
2022-10-17T20:50:44.675Z,1.42
2022-10-17T20:56:21.059Z,1.40
2022-10-17T20:58:53.028Z,1.80
2022-10-17T21:01:20.291Z,1.38
2022-10-17T21:03:46.908Z,1.08
2022-10-17T21:06:14.155Z,1.40
2022-10-17T21:08:40.598Z,1.10
2022-10-17T21:11:17.506Z,1.45
2022-10-17T21:13:44.547Z,1.92
2022-10-17T21:16:13.496Z,0.98
2022-10-17T21:18:40.469Z,1.20
2022-10-17T21:21:16.062Z,0.88
2022-10-17T21:23:44.312Z,1.25
2022-10-17T21:26:12.583Z,1.10
2022-10-17T21:28:40.005Z,1.25
2022-10-17T21:31:16.528Z,1.50
2022-10-17T21:33:45.404Z,1.13
2022-10-17T21:36:13.628Z,1.60
2022-10-17T21:38:40.837Z,1.85
2022-10-17T21:41:08.789Z,1.10
2022-10-17T21:43:36.061Z,1.15
2022-10-17T21:46:05.096Z,1.30
2022-10-17T21:48:32.421Z,1.10
2022-10-17T21:51:04.384Z,1.33
2022-10-17T21:53:30.847Z,1.33
2022-10-17T21:56:04.910Z,2.15
2022-10-17T21:58:31.857Z,1.60
2022-10-17T22:01:11.018Z,1.10
2022-10-17T22:03:44.108Z,1.05
2022-10-17T22:06:38.873Z,2.05
2022-10-17T22:09:03.553Z,1.48
2022-10-17T22:11:31.620Z,1.70
2022-10-17T22:14:01.022Z,1.02
2022-10-17T22:16:28.094Z,1.45
2022-10-17T22:19:04.914Z,1.15
2022-10-17T22:21:34.145Z,1.25
2022-10-17T22:24:02.675Z,0.93
2022-10-17T22:26:31.409Z,1.13
2022-10-17T22:28:58.204Z,1.00
2022-10-17T22:31:24.722Z,1.33
2022-10-17T22:33:51.126Z,1.40
2022-10-17T22:36:17.492Z,1.00
2022-10-17T22:38:43.950Z,1.10
2022-10-17T22:41:10.449Z,1.08
2022-10-17T22:43:36.827Z,1.35
2022-10-17T22:46:05.017Z,1.17
2022-10-17T22:48:31.640Z,1.30
2022-10-17T22:50:59.221Z,1.20
2022-10-17T22:53:26.934Z,1.40
2022-10-17T22:55:59.430Z,1.30
2022-10-17T22:58:27.291Z,1.20
2022-10-17T23:00:54.420Z,1.52
2022-10-17T23:03:22.155Z,1.33
2022-10-17T23:05:48.997Z,1.33
2022-10-17T23:08:18.077Z,1.67
2022-10-17T23:10:45.255Z,1.80
2022-10-17T23:13:11.622Z,1.92
2022-10-17T23:15:38.156Z,1.73
2022-10-17T23:18:04.610Z,1.95
2022-10-17T23:20:31.469Z,1.83
2022-10-17T23:22:58.711Z,1.65
2022-10-17T23:25:25.715Z,2.00
2022-10-17T23:27:52.211Z,1.85
2022-10-17T23:30:18.702Z,1.58
2022-10-17T23:32:45.149Z,1.70
2022-10-17T23:35:12.203Z,1.85
2022-10-17T23:37:38.662Z,2.00
2022-10-17T23:40:06.334Z,1.60
2022-10-17T23:42:32.746Z,1.77
2022-10-17T23:44:59.090Z,1.60
2022-10-17T23:47:25.484Z,1.70
2022-10-17T23:49:51.931Z,1.85
2022-10-17T23:52:18.335Z,1.40
2022-10-17T23:54:44.734Z,1.55
2022-10-17T23:57:11.072Z,1.63
2022-10-17T23:59:37.463Z,1.35
